Time;durP1;ratioP1;P1;durP2;ratioP2;P2;SDS_P1;SDS_P2;PMS_P1;PMS_P2;Temp;Humidity;BMP_temperature;BMP_pressure;BME280_temperature;BME280_humidity;BME280_pressure;Samples;Min_cycle;Max_cycle;Signal;HPM_P1;HPM_P2
2023/07/19 00:00:27;;;;;;;9.20;4.95;;;;;;;30.20;41.54;99860.69;5077145;28;20082;-71
2023/07/19 00:02:56;;;;;;;8.48;4.90;;;;;;;30.18;41.53;99868.34;5094929;28;20177;-71
2023/07/19 00:05:25;;;;;;;7.53;5.10;;;;;;;30.18;41.61;99880.16;5094847;28;20189;-71
2023/07/19 00:07:54;;;;;;;8.52;4.93;;;;;;;30.15;41.35;99875.13;5094854;28;20458;-71
2023/07/19 00:10:22;;;;;;;8.35;4.97;;;;;;;30.15;41.17;99868.81;5094799;28;20052;-71
2023/07/19 00:12:51;;;;;;;7.10;4.70;;;;;;;30.14;41.65;99867.97;5094846;28;20056;-71
2023/07/19 00:15:24;;;;;;;7.32;4.43;;;;;;;30.15;41.55;99864.13;5094626;28;20157;-71
2023/07/19 00:17:52;;;;;;;7.18;4.63;;;;;;;30.12;41.49;99842.59;5094813;28;20048;-72
2023/07/19 00:20:20;;;;;;;8.13;4.60;;;;;;;30.11;41.75;99834.56;5094379;28;20097;-72
2023/07/19 00:22:50;;;;;;;7.88;4.63;;;;;;;30.09;41.69;99834.78;5094680;28;20054;-72
2023/07/19 00:25:18;;;;;;;10.55;4.55;;;;;;;30.08;41.48;99830.38;5094721;28;20040;-72
2023/07/19 00:27:48;;;;;;;8.05;4.22;;;;;;;30.08;41.39;99824.88;5094441;28;20048;-72
2023/07/19 00:30:17;;;;;;;6.78;4.28;;;;;;;30.07;41.32;99817.69;5094425;28;20047;-72
2023/07/19 00:32:46;;;;;;;6.30;3.80;;;;;;;30.06;41.50;99813.22;5094380;28;20052;-71
2023/07/19 00:35:14;;;;;;;6.53;4.00;;;;;;;30.07;41.23;99816.84;5094542;28;20428;-72
2023/07/19 00:37:43;;;;;;;6.30;4.05;;;;;;;30.05;41.52;99814.31;5094481;28;20457;-71
2023/07/19 00:40:13;;;;;;;7.63;4.20;;;;;;;30.05;41.37;99807.97;5093279;28;20052;-71
2023/07/19 00:42:44;;;;;;;6.85;4.07;;;;;;;30.06;41.40;99810.47;5093998;28;20040;-71
2023/07/19 00:45:12;;;;;;;7.93;4.10;;;;;;;30.03;41.44;99802.69;5094173;28;20071;-71
2023/07/19 00:47:41;;;;;;;7.45;4.10;;;;;;;30.01;41.28;99796.56;5093977;28;20047;-71
2023/07/19 00:50:09;;;;;;;5.90;3.88;;;;;;;30.00;41.39;99792.13;5094041;28;20044;-71
2023/07/19 00:52:39;;;;;;;6.38;3.80;;;;;;;30.00;41.43;99796.81;5094110;28;20083;-71
2023/07/19 00:55:08;;;;;;;8.02;4.13;;;;;;;29.99;41.72;99808.88;5094061;28;20401;-71
2023/07/19 00:57:38;;;;;;;7.25;3.75;;;;;;;29.96;41.38;99796.44;5093836;28;20051;-71
2023/07/19 01:00:08;;;;;;;9.63;4.28;;;;;;;29.96;41.43;99792.84;5093664;28;20054;-71
2023/07/19 01:02:36;;;;;;;8.18;4.30;;;;;;;29.94;41.39;99793.06;5093869;28;20139;-71
2023/07/19 01:05:05;;;;;;;7.03;4.05;;;;;;;29.86;41.39;99771.38;5093746;28;20075;-71
2023/07/19 01:07:33;;;;;;;7.90;3.85;;;;;;;29.91;41.47;99777.84;5093725;28;20606;-71
2023/07/19 01:10:02;;;;;;;8.15;3.92;;;;;;;29.92;41.43;99797.97;5093455;28;20107;-71
2023/07/19 01:12:30;;;;;;;7.43;3.85;;;;;;;29.90;41.67;99784.44;5093495;28;20462;-71
2023/07/19 01:15:00;;;;;;;7.47;3.97;;;;;;;29.87;41.45;99776.66;5093739;28;20134;-71
2023/07/19 01:17:29;;;;;;;7.13;3.40;;;;;;;29.82;41.46;99767.41;5093693;28;20075;-71
2023/07/19 01:19:57;;;;;;;7.75;3.78;;;;;;;29.86;41.55;99776.88;5093376;28;20048;-71
2023/07/19 01:22:33;;;;;;;7.78;3.85;;;;;;;29.85;41.63;99778.78;5093458;28;20550;-71
2023/07/19 01:25:02;;;;;;;5.28;3.45;;;;;;;29.85;41.54;99780.72;5093239;28;20398;-71
2023/07/19 01:27:30;;;;;;;6.25;3.80;;;;;;;29.83;41.74;99785.59;5093370;28;20454;-71
2023/07/19 01:29:58;;;;;;;6.65;3.65;;;;;;;29.82;41.38;99783.88;5093374;28;20048;-71
2023/07/19 01:32:27;;;;;;;6.35;3.45;;;;;;;29.80;41.59;99778.63;5093444;28;20040;-71
2023/07/19 01:34:55;;;;;;;8.25;3.97;;;;;;;29.79;41.47;99785.19;5093316;28;20052;-71
2023/07/19 01:37:23;;;;;;;6.30;3.72;;;;;;;29.78;41.74;99786.28;5093148;28;20041;-72
2023/07/19 01:39:53;;;;;;;7.05;3.33;;;;;;;29.77;41.71;99789.25;5093095;28;20144;-71
2023/07/19 01:42:21;;;;;;;5.78;3.40;;;;;;;29.75;41.55;99797.72;5093214;28;20106;-71
2023/07/19 01:44:49;;;;;;;6.63;3.72;;;;;;;29.73;41.62;99791.63;5092946;28;20504;-71
2023/07/19 01:47:17;;;;;;;8.95;3.90;;;;;;;29.71;41.94;99781.91;5092980;28;20594;-71
2023/07/19 01:49:45;;;;;;;7.45;3.70;;;;;;;29.70;41.70;99777.47;5092855;28;20067;-71
2023/07/19 01:52:14;;;;;;;6.25;3.13;;;;;;;29.71;41.68;99790.16;5092416;28;20059;-71
2023/07/19 01:54:42;;;;;;;6.40;3.22;;;;;;;29.68;41.58;99791.47;5092969;28;20059;-71
2023/07/19 01:57:12;;;;;;;7.63;3.47;;;;;;;29.66;41.59;99777.09;5092507;28;20473;-71
2023/07/19 01:59:40;;;;;;;8.48;3.53;;;;;;;29.66;41.69;99773.53;5092881;28;20214;-71
2023/07/19 02:02:08;;;;;;;6.97;3.33;;;;;;;29.64;41.73;99769.09;5092477;28;20048;-71
2023/07/19 02:04:37;;;;;;;6.78;3.30;;;;;;;29.63;41.52;99764.66;5092557;28;20127;-71
2023/07/19 02:07:05;;;;;;;6.32;3.10;;;;;;;29.63;41.86;99778.41;5092630;28;20497;-71
2023/07/19 02:09:33;;;;;;;5.70;3.28;;;;;;;29.61;42.02;99777.78;5092469;28;20055;-71
2023/07/19 02:12:02;;;;;;;5.95;2.92;;;;;;;29.61;41.60;99786.03;5092465;28;20497;-71
2023/07/19 02:14:31;;;;;;;8.30;3.45;;;;;;;29.60;41.97;99789.00;5092318;28;20497;-71
2023/07/19 02:16:59;;;;;;;7.80;3.17;;;;;;;29.59;41.84;99793.66;5092406;28;20386;-71
2023/07/19 02:19:28;;;;;;;6.95;3.47;;;;;;;29.57;41.68;99793.06;5092252;28;20055;-71
2023/07/19 02:21:56;;;;;;;8.20;3.35;;;;;;;29.56;42.15;99794.13;5092356;28;20080;-73
2023/07/19 02:24:24;;;;;;;7.53;3.92;;;;;;;29.56;41.93;99790.53;5092123;28;20113;-71
2023/07/19 02:26:52;;;;;;;7.40;3.72;;;;;;;29.54;42.38;99792.69;5092255;28;20040;-71
2023/07/19 02:29:23;;;;;;;6.90;3.65;;;;;;;29.53;42.16;99801.97;5092213;28;20043;-71
2023/07/19 02:31:53;;;;;;;6.10;3.72;;;;;;;29.50;42.40;99806.00;5092052;28;20055;-71
2023/07/19 02:34:22;;;;;;;6.22;3.45;;;;;;;29.48;42.05;99819.13;5092008;28;20044;-71
2023/07/19 02:36:50;;;;;;;7.55;3.70;;;;;;;29.48;42.36;99815.53;5092289;28;20113;-71
2023/07/19 02:39:20;;;;;;;6.82;3.80;;;;;;;29.47;42.46;99811.09;5092083;28;20408;-71
2023/07/19 02:41:48;;;;;;;5.30;3.70;;;;;;;29.46;42.49;99814.91;5091899;28;20044;-71
2023/07/19 02:44:16;;;;;;;7.70;3.80;;;;;;;29.46;42.45;99815.75;5091974;28;20056;-71
2023/07/19 02:46:44;;;;;;;7.10;3.67;;;;;;;29.45;42.53;99802.25;5091709;28;20040;-71
2023/07/19 02:49:14;;;;;;;8.35;3.80;;;;;;;29.44;42.42;99789.56;5091675;28;20489;-71
2023/07/19 02:51:42;;;;;;;6.45;3.78;;;;;;;29.41;42.52;99801.00;5091848;28;20048;-70
2023/07/19 02:54:10;;;;;;;5.75;3.63;;;;;;;29.39;42.62;99792.16;5092072;28;20055;-71
2023/07/19 02:56:39;;;;;;;7.55;3.97;;;;;;;29.36;42.53;99780.56;5091670;28;20052;-70
2023/07/19 02:59:07;;;;;;;6.07;3.95;;;;;;;29.36;42.88;99793.44;5091558;28;20051;-71
2023/07/19 03:01:37;;;;;;;5.57;3.90;;;;;;;29.37;42.98;99792.38;5091718;28;20044;-71
2023/07/19 03:04:06;;;;;;;6.57;3.47;;;;;;;29.35;43.14;99786.28;5091123;28;20046;-72
2023/07/19 03:06:36;;;;;;;6.85;3.83;;;;;;;29.33;42.74;99793.88;5091536;28;20052;-71
2023/07/19 03:09:06;;;;;;;6.60;3.83;;;;;;;29.33;43.03;99799.38;5091335;28;20051;-71
2023/07/19 03:11:34;;;;;;;6.97;3.95;;;;;;;29.31;43.09;99796.00;5091449;28;20070;-72
2023/07/19 03:14:02;;;;;;;7.13;3.97;;;;;;;29.31;43.15;99796.00;5091417;28;20082;-70
2023/07/19 03:16:30;;;;;;;6.88;4.15;;;;;;;29.31;42.83;99793.28;5091525;28;20046;-71
2023/07/19 03:18:58;;;;;;;6.95;3.80;;;;;;;29.29;43.02;99793.50;5091519;28;20078;-71
2023/07/19 03:21:27;;;;;;;6.53;3.75;;;;;;;29.28;42.85;99790.97;5091325;28;20493;-70
2023/07/19 03:23:56;;;;;;;7.78;3.78;;;;;;;29.27;42.87;99783.81;5091454;28;20048;-71
2023/07/19 03:26:24;;;;;;;7.50;3.92;;;;;;;29.26;43.07;99793.13;5091076;28;20466;-70
2023/07/19 03:28:53;;;;;;;7.68;4.28;;;;;;;29.24;43.16;99792.47;5091650;28;20044;-71
2023/07/19 03:31:21;;;;;;;7.38;4.38;;;;;;;29.25;43.26;99796.94;5091284;28;20139;-71
2023/07/19 03:33:50;;;;;;;8.80;4.40;;;;;;;29.23;43.02;99804.53;5091506;28;20048;-71
2023/07/19 03:36:18;;;;;;;7.85;4.18;;;;;;;29.21;42.86;99802.00;5091357;28;20047;-71
2023/07/19 03:38:46;;;;;;;7.72;4.20;;;;;;;29.20;43.24;99800.34;5091284;28;20048;-71
2023/07/19 03:41:16;;;;;;;6.18;3.60;;;;;;;29.18;43.23;99794.25;5091389;28;20048;-70
2023/07/19 03:43:44;;;;;;;7.93;4.07;;;;;;;29.17;43.54;99799.97;5091212;28;20044;-71
2023/07/19 03:46:13;;;;;;;6.95;4.05;;;;;;;29.18;43.43;99807.13;5091118;28;20485;-71
2023/07/19 03:48:41;;;;;;;6.65;4.07;;;;;;;29.17;43.53;99798.06;5090966;28;20045;-71
2023/07/19 03:51:09;;;;;;;7.00;4.10;;;;;;;29.15;43.27;99786.47;5091034;28;20048;-71
2023/07/19 03:53:37;;;;;;;8.88;4.50;;;;;;;29.14;43.64;99792.97;5091228;28;20048;-70
2023/07/19 03:56:06;;;;;;;7.70;4.05;;;;;;;29.14;43.66;99795.72;5091193;28;20044;-71
2023/07/19 03:58:38;;;;;;;7.65;4.18;;;;;;;29.14;43.42;99803.13;5091171;28;20143;-71
2023/07/19 04:01:07;;;;;;;6.43;4.40;;;;;;;29.11;43.52;99804.44;5091057;28;20123;-71
2023/07/19 04:03:35;;;;;;;9.40;4.28;;;;;;;29.10;43.63;99805.50;5090873;28;20056;-71
2023/07/19 04:06:03;;;;;;;6.93;4.00;;;;;;;29.09;43.80;99814.78;5090723;28;20052;-71
2023/07/19 04:08:32;;;;;;;8.65;4.15;;;;;;;29.06;44.16;99821.59;5090808;28;20503;-71
2023/07/19 04:11:00;;;;;;;6.72;4.05;;;;;;;29.05;44.03;99819.91;5090773;28;20052;-71
2023/07/19 04:13:28;;;;;;;9.20;4.43;;;;;;;29.05;43.94;99819.91;5091005;28;20048;-70
2023/07/19 04:15:58;;;;;;;6.57;4.30;;;;;;;29.05;44.04;99825.41;5093320;28;20048;-70
2023/07/19 04:18:26;;;;;;;8.95;4.60;;;;;;;29.03;44.05;99824.75;5094546;28;20044;-70
2023/07/19 04:20:56;;;;;;;7.15;4.60;;;;;;;29.03;44.23;99835.75;5094443;28;20538;-71
2023/07/19 04:23:25;;;;;;;8.38;4.63;;;;;;;29.01;44.47;99832.38;5094723;28;20044;-70
2023/07/19 04:25:53;;;;;;;6.63;4.55;;;;;;;28.99;44.33;99819.94;5094606;28;20044;-70
2023/07/19 04:28:21;;;;;;;7.05;4.82;;;;;;;28.98;44.98;99830.09;5094654;28;20048;-71
2023/07/19 04:30:50;;;;;;;7.15;4.45;;;;;;;28.97;44.58;99825.66;5094372;28;20072;-71
2023/07/19 04:33:20;;;;;;;11.73;4.85;;;;;;;28.97;44.97;99833.06;5094226;28;20117;-71
2023/07/19 04:35:49;;;;;;;10.30;5.00;;;;;;;28.95;45.01;99825.06;5094299;28;20058;-70
2023/07/19 04:38:17;;;;;;;8.85;4.80;;;;;;;28.94;45.24;99823.34;5094005;28;20051;-70
2023/07/19 04:40:45;;;;;;;8.73;5.03;;;;;;;28.94;45.19;99828.84;5094060;28;20040;-70
2023/07/19 04:43:13;;;;;;;7.68;4.72;;;;;;;28.91;45.33;99815.56;5094003;28;20108;-68
2023/07/19 04:45:43;;;;;;;7.40;4.68;;;;;;;28.91;45.45;99807.31;5094201;28;20044;-69
2023/07/19 04:48:11;;;;;;;9.10;4.88;;;;;;;28.89;45.41;99814.94;5093943;28;20101;-68
2023/07/19 04:50:41;;;;;;;7.95;4.85;;;;;;;28.87;45.25;99816.22;5094121;28;20044;-69
2023/07/19 04:53:09;;;;;;;10.90;4.97;;;;;;;28.88;45.13;99823.38;5093823;28;20055;-69
2023/07/19 04:55:37;;;;;;;8.00;4.80;;;;;;;28.88;45.09;99823.38;5093843;28;20477;-68
2023/07/19 04:58:07;;;;;;;7.97;4.55;;;;;;;28.88;45.46;99826.97;5093789;28;20043;-69
2023/07/19 05:00:35;;;;;;;8.98;4.88;;;;;;;28.86;45.12;99823.59;5094040;28;20497;-68
2023/07/19 05:03:04;;;;;;;8.82;5.38;;;;;;;28.80;46.01;99814.34;5093539;28;20052;-70
2023/07/19 05:05:32;;;;;;;7.75;4.90;;;;;;;28.80;46.23;99824.47;5093643;28;20052;-69
2023/07/19 05:08:04;;;;;;;9.32;4.82;;;;;;;28.78;46.24;99813.72;5090177;28;20044;-72
2023/07/19 05:10:32;;;;;;;9.40;4.90;;;;;;;28.78;46.31;99821.13;5092578;28;20048;-68
2023/07/19 05:13:00;;;;;;;8.88;5.00;;;;;;;28.77;46.21;99811.22;5093312;28;20048;-69
2023/07/19 05:15:28;;;;;;;15.07;5.10;;;;;;;28.78;46.08;99823.88;5092338;28;20113;-69
2023/07/19 05:17:56;;;;;;;7.55;4.95;;;;;;;28.79;46.32;99820.91;5091810;28;20076;-69
2023/07/19 05:20:26;;;;;;;8.48;4.82;;;;;;;28.80;46.44;99829.97;5093351;28;20076;-69
2023/07/19 05:22:54;;;;;;;11.02;5.18;;;;;;;28.79;46.48;99818.16;5093370;28;20404;-69
2023/07/19 05:25:24;;;;;;;8.30;4.90;;;;;;;28.81;46.15;99823.41;5093306;28;20059;-69
2023/07/19 05:27:52;;;;;;;9.20;4.90;;;;;;;28.82;46.06;99833.31;5092623;28;20386;-69
2023/07/19 05:30:21;;;;;;;11.38;5.15;;;;;;;28.82;46.16;99830.56;5093228;28;20098;-69
2023/07/19 05:32:49;;;;;;;7.68;4.90;;;;;;;28.82;46.49;99827.84;5093494;28;20405;-68
2023/07/19 05:35:17;;;;;;;10.20;4.93;;;;;;;28.83;46.06;99815.78;5093175;28;20374;-68
2023/07/19 05:37:46;;;;;;;9.85;4.63;;;;;;;28.83;46.47;99821.28;5093100;28;20048;-69
2023/07/19 05:40:14;;;;;;;10.63;4.72;;;;;;;28.83;46.51;99823.19;5092902;28;20044;-67
2023/07/19 05:42:43;;;;;;;8.27;4.57;;;;;;;28.84;46.33;99820.22;5092984;28;20123;-68
2023/07/19 05:45:12;;;;;;;7.63;4.65;;;;;;;28.84;46.16;99836.69;5092992;28;20052;-68
2023/07/19 05:47:40;;;;;;;10.52;4.57;;;;;;;28.84;46.23;99842.16;5092909;28;20083;-69
2023/07/19 05:50:09;;;;;;;8.93;4.72;;;;;;;28.83;45.86;99843.25;5092728;28;20112;-69
2023/07/19 05:52:37;;;;;;;9.82;4.97;;;;;;;28.86;46.07;99847.47;5092638;28;20052;-69
2023/07/19 05:55:06;;;;;;;6.85;4.53;;;;;;;28.86;45.80;99841.97;5092548;28;20044;-68
2023/07/19 05:57:34;;;;;;;8.10;4.30;;;;;;;28.86;45.90;99842.81;5092783;28;20048;-70
2023/07/19 06:00:10;;;;;;;8.88;4.47;;;;;;;28.87;46.02;99840.91;5092646;28;20050;-68
2023/07/19 06:02:47;;;;;;;8.85;4.60;;;;;;;28.86;45.93;99845.56;5092249;28;20305;-68
2023/07/19 06:05:24;;;;;;;10.93;4.43;;;;;;;28.86;46.08;99851.06;5092114;28;20056;-69
2023/07/19 06:07:52;;;;;;;8.18;4.45;;;;;;;28.87;46.09;99854.63;5092387;28;20044;-68
2023/07/19 06:10:21;;;;;;;8.05;4.40;;;;;;;28.86;45.88;99848.31;5092068;28;20090;-69
2023/07/19 06:12:49;;;;;;;8.88;4.50;;;;;;;28.89;45.96;99855.28;5092375;28;20079;-68
2023/07/19 06:15:20;;;;;;;6.72;4.00;;;;;;;28.88;46.12;99846.19;5092003;28;20040;-68
2023/07/19 06:17:48;;;;;;;7.78;4.28;;;;;;;28.89;45.76;99847.03;5091983;28;20040;-69
2023/07/19 06:20:16;;;;;;;8.25;4.40;;;;;;;28.88;46.33;99845.34;5092180;28;20048;-69
2023/07/19 06:22:45;;;;;;;7.78;4.63;;;;;;;28.89;45.93;99841.56;5092055;28;20245;-68
2023/07/19 06:25:15;;;;;;;7.53;4.32;;;;;;;28.91;45.84;99847.66;5092071;28;20047;-69
2023/07/19 06:27:43;;;;;;;7.13;4.55;;;;;;;28.91;45.81;99845.75;5091827;28;20060;-69
2023/07/19 06:30:13;;;;;;;7.43;4.45;;;;;;;28.92;45.81;99841.09;5091732;28;20070;-69
2023/07/19 06:32:42;;;;;;;7.53;4.03;;;;;;;28.91;45.86;99837.53;5092170;28;20044;-69
2023/07/19 06:35:13;;;;;;;7.00;4.38;;;;;;;28.91;46.12;99839.44;5092056;28;20127;-68
2023/07/19 06:37:43;;;;;;;6.63;4.20;;;;;;;28.92;45.86;99841.94;5091711;28;20098;-69
2023/07/19 06:40:12;;;;;;;5.38;4.20;;;;;;;28.94;46.21;99845.31;5091147;28;20511;-69
2023/07/19 06:42:40;;;;;;;6.88;4.00;;;;;;;28.94;45.84;99839.81;5091757;28;20046;-69
2023/07/19 06:45:09;;;;;;;7.53;4.65;;;;;;;28.94;46.04;99844.47;5091636;28;20058;-69
2023/07/19 06:47:37;;;;;;;7.32;4.32;;;;;;;28.95;46.21;99835.16;5091957;28;20044;-69
2023/07/19 06:50:08;;;;;;;8.00;4.07;;;;;;;28.96;45.97;99842.38;5091598;28;20044;-69
2023/07/19 06:52:37;;;;;;;6.32;4.13;;;;;;;28.97;46.35;99839.38;5091605;28;20113;-69
2023/07/19 06:55:06;;;;;;;6.57;4.40;;;;;;;28.95;46.00;99830.53;5091677;28;20135;-69
2023/07/19 06:57:34;;;;;;;5.47;3.90;;;;;;;28.98;46.19;99821.84;5091428;28;20077;-68
2023/07/19 07:00:03;;;;;;;6.88;4.20;;;;;;;28.98;46.42;99813.63;5091676;28;20048;-69
2023/07/19 07:02:31;;;;;;;6.75;3.35;;;;;;;28.99;46.04;99812.53;5091738;28;20044;-70
2023/07/19 07:05:00;;;;;;;6.32;3.90;;;;;;;28.99;46.38;99818.03;5091395;28;20079;-69
2023/07/19 07:07:29;;;;;;;7.20;4.13;;;;;;;29.00;46.17;99816.97;5091486;28;20051;-69
2023/07/19 07:09:58;;;;;;;7.03;3.92;;;;;;;29.01;46.29;99821.41;5091333;28;20056;-69
2023/07/19 07:12:26;;;;;;;6.97;4.00;;;;;;;29.02;46.20;99819.50;5091329;28;20143;-69
2023/07/19 07:14:54;;;;;;;6.50;4.20;;;;;;;29.00;46.34;99810.66;5091344;28;20055;-69
2023/07/19 07:17:23;;;;;;;7.68;4.15;;;;;;;29.03;46.32;99808.28;5091608;28;20114;-69
2023/07/19 07:19:53;;;;;;;5.60;3.53;;;;;;;29.04;46.28;99811.88;5091340;28;20123;-69
2023/07/19 07:22:22;;;;;;;6.93;3.90;;;;;;;29.05;46.47;99808.09;5091099;28;20542;-69
2023/07/19 07:24:52;;;;;;;6.93;4.03;;;;;;;29.05;46.37;99802.59;5091076;28;20105;-69
2023/07/19 07:27:20;;;;;;;6.32;4.28;;;;;;;29.06;46.18;99805.09;5091237;28;20404;-69
2023/07/19 07:29:48;;;;;;;6.95;4.10;;;;;;;29.06;46.25;99809.75;5091370;28;20048;-70
2023/07/19 07:32:16;;;;;;;6.40;4.10;;;;;;;29.07;46.17;99812.28;5091196;28;20055;-69
2023/07/19 07:34:45;;;;;;;7.18;4.00;;;;;;;29.09;46.28;99820.28;5091290;28;20155;-69
2023/07/19 07:37:13;;;;;;;6.00;3.75;;;;;;;29.10;45.96;99815.63;5091072;28;20409;-69
2023/07/19 07:39:41;;;;;;;5.95;3.72;;;;;;;29.11;46.22;99817.31;5091444;28;20400;-68
2023/07/19 07:42:11;;;;;;;7.15;3.92;;;;;;;29.11;46.56;99823.66;5091175;28;20044;-69
2023/07/19 07:44:39;;;;;;;5.75;3.92;;;;;;;29.12;46.14;99827.22;5091066;28;20048;-69
2023/07/19 07:47:08;;;;;;;6.03;3.63;;;;;;;29.14;46.27;99827.84;5090983;28;20044;-69
2023/07/19 07:49:36;;;;;;;5.82;3.92;;;;;;;29.13;46.44;99815.19;5091509;28;20377;-69
2023/07/19 07:52:05;;;;;;;5.07;3.85;;;;;;;29.15;46.32;99813.06;5095009;28;20151;-69
2023/07/19 07:54:33;;;;;;;5.53;3.80;;;;;;;29.15;46.28;99813.91;5095249;28;20046;-69
2023/07/19 07:57:02;;;;;;;7.05;4.20;;;;;;;29.16;46.28;99815.59;5076819;28;20047;-69
2023/07/19 07:59:31;;;;;;;6.85;3.70;;;;;;;29.18;46.12;99823.59;5095108;28;20086;-69
2023/07/19 08:01:59;;;;;;;6.70;4.18;;;;;;;29.19;46.46;99819.78;5094710;28;20044;-68
2023/07/19 08:04:30;;;;;;;6.45;3.85;;;;;;;29.18;46.31;99820.84;5094685;28;20052;-68
2023/07/19 08:06:58;;;;;;;6.55;3.78;;;;;;;29.19;46.36;99825.28;5094874;28;20102;-69
2023/07/19 08:09:27;;;;;;;6.70;3.80;;;;;;;29.20;46.33;99821.47;5094445;28;20113;-69
2023/07/19 08:11:56;;;;;;;6.00;3.80;;;;;;;29.21;46.42;99817.66;5094709;28;20044;-69
2023/07/19 08:14:24;;;;;;;7.30;3.97;;;;;;;29.22;46.50;99816.59;5094650;28;20048;-69
2023/07/19 08:16:54;;;;;;;5.35;3.78;;;;;;;29.22;46.33;99809.19;5094395;28;20044;-69
2023/07/19 08:19:22;;;;;;;5.53;3.78;;;;;;;29.24;46.32;99803.47;5094472;28;20560;-69
2023/07/19 08:21:51;;;;;;;5.00;3.70;;;;;;;29.24;46.45;99803.47;5094623;28;20447;-69
2023/07/19 08:24:19;;;;;;;9.23;4.32;;;;;;;29.26;46.13;99787.63;5094362;28;20052;-69
2023/07/19 08:26:47;;;;;;;6.55;3.95;;;;;;;29.26;46.33;99788.47;5094424;28;20079;-69
2023/07/19 08:29:15;;;;;;;6.25;3.75;;;;;;;29.27;46.22;99792.88;5094425;28;20044;-69
2023/07/19 08:31:44;;;;;;;5.90;3.72;;;;;;;29.28;46.34;99790.97;5094237;28;20485;-69
2023/07/19 08:34:13;;;;;;;5.78;4.00;;;;;;;29.28;46.12;99799.22;5094427;28;20113;-69
2023/07/19 08:36:42;;;;;;;6.20;3.80;;;;;;;29.30;46.30;99797.09;5094159;28;20055;-69
2023/07/19 08:39:10;;;;;;;5.32;3.50;;;;;;;29.31;46.38;99796.00;5094167;28;20459;-68
2023/07/19 08:41:38;;;;;;;5.60;3.83;;;;;;;29.31;46.58;99801.50;5094069;28;20040;-69
2023/07/19 08:44:06;;;;;;;6.65;3.95;;;;;;;29.31;46.16;99801.50;5093873;28;20133;-69
2023/07/19 08:46:34;;;;;;;5.95;4.00;;;;;;;29.33;46.36;99804.88;5094034;28;20044;-69
2023/07/19 08:49:03;;;;;;;5.45;3.38;;;;;;;29.34;46.39;99798.34;5093808;28;20489;-69
2023/07/19 08:51:32;;;;;;;6.07;3.42;;;;;;;29.35;46.40;99808.25;5093769;28;20070;-69
2023/07/19 08:54:00;;;;;;;5.47;3.50;;;;;;;29.36;46.59;99809.94;5093683;28;20052;-68
2023/07/19 08:56:31;;;;;;;5.47;3.80;;;;;;;29.36;46.53;99798.94;5093502;28;20108;-69
2023/07/19 08:58:59;;;;;;;5.13;3.33;;;;;;;29.37;46.27;99803.38;5093707;28;20127;-69
2023/07/19 09:01:27;;;;;;;6.93;3.60;;;;;;;29.39;46.52;99814.13;5092766;28;20085;-69
2023/07/19 09:03:55;;;;;;;5.15;3.45;;;;;;;29.39;46.31;99812.22;5093837;28;20097;-69
2023/07/19 09:06:24;;;;;;;5.75;3.75;;;;;;;29.40;46.19;99810.31;5093445;28;20159;-69
2023/07/19 09:08:55;;;;;;;6.00;3.70;;;;;;;29.41;46.47;99814.72;5093407;28;20481;-69
2023/07/19 09:11:23;;;;;;;6.30;4.07;;;;;;;29.42;46.27;99820.00;5093529;28;20056;-69
2023/07/19 09:13:54;;;;;;;6.25;3.97;;;;;;;29.43;46.45;99818.94;5093474;28;20044;-69
2023/07/19 09:16:30;;;;;;;6.32;3.85;;;;;;;29.45;46.10;99821.47;5093463;28;20060;-69
2023/07/19 09:18:59;;;;;;;5.95;3.55;;;;;;;29.45;46.23;99815.97;5093474;28;20048;-69
2023/07/19 09:21:36;;;;;;;6.15;3.40;;;;;;;29.45;46.35;99816.81;5093367;28;20279;-69
2023/07/19 09:24:08;;;;;;;7.95;4.00;;;;;;;29.47;46.52;99820.19;5093184;28;20135;-69
2023/07/19 09:26:49;;;;;;;7.18;3.80;;;;;;;29.48;46.24;99821.88;5093473;28;20451;-69
2023/07/19 09:29:18;;;;;;;6.32;3.55;;;;;;;29.49;46.20;99820.81;5093245;28;20197;-69
2023/07/19 09:31:54;;;;;;;4.53;3.70;;;;;;;29.51;46.62;99824.16;5093238;28;20051;-69
2023/07/19 09:34:23;;;;;;;4.75;3.40;;;;;;;29.51;46.23;99810.44;5092992;28;20059;-69
2023/07/19 09:36:52;;;;;;;5.10;3.60;;;;;;;29.52;46.68;99806.63;5093081;28;20465;-69
2023/07/19 09:39:23;;;;;;;5.10;3.38;;;;;;;29.52;46.36;99792.03;5093130;28;20089;-69
2023/07/19 09:41:51;;;;;;;5.15;3.40;;;;;;;29.53;46.36;99794.59;5075209;28;20125;-69
2023/07/19 09:44:23;;;;;;;4.88;3.50;;;;;;;29.55;46.35;99799.84;5092840;28;20102;-70
2023/07/19 09:46:54;;;;;;;5.63;3.40;;;;;;;29.55;46.25;99791.59;5092683;28;20044;-69
2023/07/19 09:49:23;;;;;;;4.88;3.20;;;;;;;29.56;46.29;99788.63;5092985;28;20040;-68
2023/07/19 09:51:55;;;;;;;6.25;3.50;;;;;;;29.56;46.38;99794.13;5092835;28;20063;-70
2023/07/19 09:54:26;;;;;;;6.55;3.53;;;;;;;29.58;46.33;99802.13;5092902;28;20051;-69
2023/07/19 09:56:54;;;;;;;5.60;3.50;;;;;;;29.58;46.50;99802.97;5092661;28;20044;-69
2023/07/19 09:59:28;;;;;;;4.72;3.28;;;;;;;29.59;46.08;99810.16;5092505;28;20047;-69
2023/07/19 10:01:57;;;;;;;5.68;3.42;;;;;;;29.62;46.35;99808.84;5092798;28;20048;-68
2023/07/19 10:04:27;;;;;;;5.95;3.25;;;;;;;29.62;46.21;99804.19;5092589;28;20044;-68
2023/07/19 10:07:09;;;;;;;4.93;3.35;;;;;;;29.63;46.30;99794.91;5092589;28;20052;-68
2023/07/19 10:09:40;;;;;;;6.63;3.35;;;;;;;29.66;46.40;99792.75;5092294;28;20128;-68
2023/07/19 10:12:25;;;;;;;5.28;3.22;;;;;;;29.67;46.30;99783.44;5092653;28;20044;-68
2023/07/19 10:14:57;;;;;;;4.82;3.28;;;;;;;29.67;46.30;99780.69;5092402;28;20059;-68
2023/07/19 10:17:25;;;;;;;4.70;3.60;;;;;;;29.68;46.29;99777.72;5092462;28;21080;-69
2023/07/19 10:20:12;;;;;;;5.07;3.35;;;;;;;29.69;46.61;99775.81;5092469;28;20394;-68
2023/07/19 10:22:49;;;;;;;5.38;3.60;;;;;;;29.70;46.43;99772.00;5093276;28;20122;-68
2023/07/19 10:25:22;;;;;;;5.07;3.30;;;;;;;29.72;46.21;99765.19;5092333;28;20040;-68
2023/07/19 10:28:05;;;;;;;6.68;3.35;;;;;;;29.74;46.42;99770.47;5092102;28;20080;-68
2023/07/19 10:30:53;;;;;;;4.15;3.25;;;;;;;29.75;46.22;99763.91;5091860;28;20040;-69
2023/07/19 10:33:23;;;;;;;4.75;3.30;;;;;;;29.76;46.03;99762.84;5092104;28;20075;-69
2023/07/19 10:35:53;;;;;;;6.07;3.63;;;;;;;29.77;46.36;99756.28;5091926;28;20459;-68
2023/07/19 10:38:23;;;;;;;5.82;3.38;;;;;;;29.77;46.35;99750.78;5091971;28;20048;-69
2023/07/19 10:40:57;;;;;;;5.07;3.38;;;;;;;29.80;46.33;99747.56;5091847;28;20078;-68
2023/07/19 10:43:26;;;;;;;5.07;3.47;;;;;;;29.81;46.24;99746.47;5091822;28;20094;-69
2023/07/19 10:46:14;;;;;;;5.22;3.05;;;;;;;29.83;46.01;99747.94;5091596;28;20504;-69
2023/07/19 10:48:43;;;;;;;4.35;3.30;;;;;;;29.83;46.27;99739.72;5091657;28;20052;-69
2023/07/19 10:51:11;;;;;;;6.13;3.50;;;;;;;29.84;46.42;99733.13;5091765;28;20086;-69
2023/07/19 10:53:43;;;;;;;4.90;3.40;;;;;;;29.86;46.09;99732.91;5091658;28;20055;-69
2023/07/19 10:56:13;;;;;;;;;;;;;;;29.86;46.22;99713.66;5092342;28;20052;-69
2023/07/19 10:58:42;;;;;;;4.68;3.40;;;;;;;29.88;46.40;99712.34;5091730;28;19927;-69
2023/07/19 11:01:11;;;;;;;4.53;3.05;;;;;;;29.90;46.27;99707.44;5091752;28;20071;-69
2023/07/19 11:03:46;;;;;;;5.25;3.25;;;;;;;29.92;46.42;99707.25;5091510;28;20048;-69
2023/07/19 11:06:15;;;;;;;4.93;3.53;;;;;;;29.93;46.07;99717.16;5091347;28;20135;-69
2023/07/19 11:08:44;;;;;;;5.45;3.30;;;;;;;29.94;46.40;99721.59;5091367;28;20079;-69
2023/07/19 11:11:15;;;;;;;3.95;3.00;;;;;;;29.97;46.12;99734.88;5091523;28;20108;-69
2023/07/19 11:13:45;;;;;;;4.47;3.17;;;;;;;29.99;46.19;99715.38;5091546;28;20108;-69
2023/07/19 11:16:14;;;;;;;6.32;3.30;;;;;;;30.00;46.15;99717.06;5091473;28;20072;-69
2023/07/19 11:18:43;;;;;;;4.85;3.20;;;;;;;30.01;46.17;99718.75;5091232;28;20052;-69
2023/07/19 11:21:11;;;;;;;4.85;3.08;;;;;;;30.02;46.32;99713.03;5073380;28;20078;-69
2023/07/19 11:23:44;;;;;;;5.10;3.40;;;;;;;30.03;46.07;99713.88;5091457;28;20040;-69
2023/07/19 11:26:15;;;;;;;5.35;3.25;;;;;;;30.06;46.13;99705.16;5090766;28;20139;-68
2023/07/19 11:28:50;;;;;;;5.80;3.70;;;;;;;30.07;46.17;99701.34;5091176;28;20054;-69
2023/07/19 11:31:31;;;;;;;4.03;2.90;;;;;;;30.09;45.83;99708.28;5091099;28;20052;-69
2023/07/19 11:34:01;;;;;;;6.07;3.05;;;;;;;30.11;46.12;99710.81;5090694;28;20125;-69
2023/07/19 11:36:31;;;;;;;4.28;3.10;;;;;;;30.13;46.09;99712.28;5091235;28;20290;-68
2023/07/19 11:39:00;;;;;;;4.43;3.08;;;;;;;30.15;45.99;99707.38;5091098;28;20508;-68
2023/07/19 11:41:32;;;;;;;4.90;3.63;;;;;;;30.17;46.20;99712.63;5091013;28;20493;-68
2023/07/19 11:44:00;;;;;;;5.00;3.27;;;;;;;30.17;45.86;99707.97;5090962;28;20080;-68